sensor_id;sensor_type;location;lat;lon;timestamp;P1;durP1;ratioP1;P2;durP2;ratioP2
5217;SDS011;26539;51.064;6.346;2023-03-05T00:08:26;7.15;;;1.77;;
5217;SDS011;26539;51.064;6.346;2023-03-05T00:11:08;4.32;;;1.45;;
5217;SDS011;26539;51.064;6.346;2023-03-05T00:13:39;4.88;;;1.40;;
5217;SDS011;26539;51.064;6.346;2023-03-05T00:16:11;3.60;;;1.20;;
5217;SDS011;26539;51.064;6.346;2023-03-05T00:18:39;3.08;;;1.25;;
5217;SDS011;26539;51.064;6.346;2023-03-05T00:21:17;3.78;;;2.30;;
5217;SDS011;26539;51.064;6.346;2023-03-05T00:23:48;4.97;;;1.40;;
5217;SDS011;26539;51.064;6.346;2023-03-05T00:26:37;4.07;;;1.02;;
5217;SDS011;26539;51.064;6.346;2023-03-05T00:29:06;5.20;;;1.10;;
5217;SDS011;26539;51.064;6.346;2023-03-05T00:31:40;3.58;;;1.00;;
5217;SDS011;26539;51.064;6.346;2023-03-05T00:34:19;1.77;;;1.10;;
5217;SDS011;26539;51.064;6.346;2023-03-05T00:36:46;1.63;;;1.30;;
5217;SDS011;26539;51.064;6.346;2023-03-05T00:39:18;8.77;;;1.70;;
5217;SDS011;26539;51.064;6.346;2023-03-05T00:41:44;4.43;;;1.70;;
5217;SDS011;26539;51.064;6.346;2023-03-05T00:44:13;5.00;;;1.00;;
5217;SDS011;26539;51.064;6.346;2023-03-05T00:53:35;3.95;;;1.13;;
5217;SDS011;26539;51.064;6.346;2023-03-05T00:56:11;5.97;;;1.42;;
5217;SDS011;26539;51.064;6.346;2023-03-05T00:59:07;5.43;;;1.50;;
5217;SDS011;26539;51.064;6.346;2023-03-05T01:01:35;4.23;;;1.40;;
5217;SDS011;26539;51.064;6.346;2023-03-05T01:04:30;6.43;;;1.70;;
5217;SDS011;26539;51.064;6.346;2023-03-05T01:10:27;2.45;;;1.38;;
5217;SDS011;26539;51.064;6.346;2023-03-05T01:13:14;7.38;;;1.88;;
5217;SDS011;26539;51.064;6.346;2023-03-05T01:15:40;6.90;;;1.80;;
5217;SDS011;26539;51.064;6.346;2023-03-05T01:24:44;3.05;;;1.30;;
5217;SDS011;26539;51.064;6.346;2023-03-05T01:27:30;4.78;;;1.70;;
5217;SDS011;26539;51.064;6.346;2023-03-05T01:33:42;4.70;;;1.92;;
5217;SDS011;26539;51.064;6.346;2023-03-05T01:48:44;8.95;;;2.03;;
5217;SDS011;26539;51.064;6.346;2023-03-05T01:51:14;5.45;;;1.95;;
5217;SDS011;26539;51.064;6.346;2023-03-05T01:53:42;5.22;;;2.47;;
5217;SDS011;26539;51.064;6.346;2023-03-05T01:56:21;5.97;;;2.10;;
5217;SDS011;26539;51.064;6.346;2023-03-05T01:58:52;10.77;;;2.58;;
5217;SDS011;26539;51.064;6.346;2023-03-05T02:01:21;10.23;;;2.13;;
5217;SDS011;26539;51.064;6.346;2023-03-05T02:03:47;4.40;;;1.77;;
5217;SDS011;26539;51.064;6.346;2023-03-05T02:06:13;14.00;;;2.10;;
5217;SDS011;26539;51.064;6.346;2023-03-05T02:08:40;10.50;;;2.22;;
5217;SDS011;26539;51.064;6.346;2023-03-05T02:11:08;9.50;;;1.90;;
5217;SDS011;26539;51.064;6.346;2023-03-05T02:17:00;10.32;;;2.25;;
5217;SDS011;26539;51.064;6.346;2023-03-05T02:23:18;8.60;;;2.05;;
5217;SDS011;26539;51.064;6.346;2023-03-05T02:25:47;8.88;;;2.22;;
5217;SDS011;26539;51.064;6.346;2023-03-05T02:31:19;9.65;;;2.50;;
5217;SDS011;26539;51.064;6.346;2023-03-05T02:37:18;8.85;;;2.67;;
5217;SDS011;26539;51.064;6.346;2023-03-05T02:40:26;11.77;;;2.58;;
5217;SDS011;26539;51.064;6.346;2023-03-05T02:50:32;7.32;;;2.08;;
5217;SDS011;26539;51.064;6.346;2023-03-05T02:53:36;6.90;;;2.67;;
5217;SDS011;26539;51.064;6.346;2023-03-05T02:56:15;4.85;;;1.95;;
5217;SDS011;26539;51.064;6.346;2023-03-05T02:59:04;7.57;;;1.50;;
5217;SDS011;26539;51.064;6.346;2023-03-05T03:02:03;5.80;;;1.95;;
5217;SDS011;26539;51.064;6.346;2023-03-05T03:08:01;6.93;;;1.90;;
5217;SDS011;26539;51.064;6.346;2023-03-05T03:10:27;7.80;;;3.10;;
5217;SDS011;26539;51.064;6.346;2023-03-05T03:13:28;8.02;;;2.13;;
5217;SDS011;26539;51.064;6.346;2023-03-05T03:16:32;7.32;;;2.40;;
5217;SDS011;26539;51.064;6.346;2023-03-05T03:19:38;8.07;;;2.30;;
5217;SDS011;26539;51.064;6.346;2023-03-05T03:22:41;9.82;;;3.78;;
5217;SDS011;26539;51.064;6.346;2023-03-05T03:25:10;10.02;;;2.28;;
5217;SDS011;26539;51.064;6.346;2023-03-05T03:31:30;11.02;;;2.75;;
5217;SDS011;26539;51.064;6.346;2023-03-05T03:34:43;5.30;;;2.28;;
5217;SDS011;26539;51.064;6.346;2023-03-05T03:37:49;4.75;;;1.70;;
5217;SDS011;26539;51.064;6.346;2023-03-05T03:40:18;6.47;;;2.78;;
5217;SDS011;26539;51.064;6.346;2023-03-05T03:42:51;8.07;;;2.13;;
5217;SDS011;26539;51.064;6.346;2023-03-05T03:45:17;7.28;;;1.77;;
5217;SDS011;26539;51.064;6.346;2023-03-05T03:47:49;13.00;;;2.83;;
5217;SDS011;26539;51.064;6.346;2023-03-05T03:50:24;7.55;;;2.35;;
5217;SDS011;26539;51.064;6.346;2023-03-05T03:53:19;8.57;;;2.35;;
5217;SDS011;26539;51.064;6.346;2023-03-05T03:55:47;7.07;;;2.40;;
5217;SDS011;26539;51.064;6.346;2023-03-05T03:58:55;5.70;;;2.53;;
5217;SDS011;26539;51.064;6.346;2023-03-05T04:12:18;8.50;;;2.65;;
5217;SDS011;26539;51.064;6.346;2023-03-05T04:18:33;7.55;;;2.65;;
5217;SDS011;26539;51.064;6.346;2023-03-05T04:35:04;8.63;;;2.60;;
5217;SDS011;26539;51.064;6.346;2023-03-05T04:41:23;13.05;;;2.60;;
5217;SDS011;26539;51.064;6.346;2023-03-05T04:44:32;13.05;;;3.17;;
5217;SDS011;26539;51.064;6.346;2023-03-05T04:47:55;9.20;;;3.25;;
5217;SDS011;26539;51.064;6.346;2023-03-05T05:00:29;10.27;;;2.95;;
5217;SDS011;26539;51.064;6.346;2023-03-05T05:06:13;14.15;;;2.88;;
5217;SDS011;26539;51.064;6.346;2023-03-05T05:09:01;13.98;;;3.10;;
5217;SDS011;26539;51.064;6.346;2023-03-05T05:11:47;7.25;;;3.30;;
5217;SDS011;26539;51.064;6.346;2023-03-05T05:14:24;10.20;;;2.97;;
5217;SDS011;26539;51.064;6.346;2023-03-05T05:17:05;5.43;;;2.88;;
5217;SDS011;26539;51.064;6.346;2023-03-05T05:19:33;6.57;;;3.50;;
5217;SDS011;26539;51.064;6.346;2023-03-05T05:21:59;17.20;;;3.58;;
5217;SDS011;26539;51.064;6.346;2023-03-05T05:24:43;8.23;;;3.40;;
5217;SDS011;26539;51.064;6.346;2023-03-05T05:27:56;8.93;;;2.72;;
5217;SDS011;26539;51.064;6.346;2023-03-05T05:31:04;7.53;;;2.65;;
5217;SDS011;26539;51.064;6.346;2023-03-05T05:33:53;9.43;;;2.03;;
5217;SDS011;26539;51.064;6.346;2023-03-05T05:36:27;3.05;;;1.80;;
5217;SDS011;26539;51.064;6.346;2023-03-05T05:39:21;3.47;;;1.92;;
5217;SDS011;26539;51.064;6.346;2023-03-05T05:45:43;4.07;;;1.70;;
5217;SDS011;26539;51.064;6.346;2023-03-05T05:52:02;4.07;;;1.92;;
5217;SDS011;26539;51.064;6.346;2023-03-05T05:55:11;4.18;;;1.95;;
5217;SDS011;26539;51.064;6.346;2023-03-05T05:58:02;8.48;;;2.25;;
5217;SDS011;26539;51.064;6.346;2023-03-05T06:00:56;8.75;;;2.05;;
5217;SDS011;26539;51.064;6.346;2023-03-05T06:04:02;5.70;;;2.40;;
5217;SDS011;26539;51.064;6.346;2023-03-05T06:10:23;7.47;;;2.88;;
5217;SDS011;26539;51.064;6.346;2023-03-05T06:13:38;5.40;;;2.85;;
5217;SDS011;26539;51.064;6.346;2023-03-05T06:16:35;7.57;;;2.95;;
5217;SDS011;26539;51.064;6.346;2023-03-05T06:22:53;6.60;;;3.05;;
5217;SDS011;26539;51.064;6.346;2023-03-05T06:29:29;6.43;;;2.83;;
5217;SDS011;26539;51.064;6.346;2023-03-05T06:36:06;7.10;;;2.70;;
5217;SDS011;26539;51.064;6.346;2023-03-05T06:39:13;8.07;;;3.08;;
5217;SDS011;26539;51.064;6.346;2023-03-05T06:48:54;5.90;;;3.45;;
5217;SDS011;26539;51.064;6.346;2023-03-05T06:51:51;8.32;;;3.55;;
5217;SDS011;26539;51.064;6.346;2023-03-05T06:57:56;6.43;;;2.78;;
5217;SDS011;26539;51.064;6.346;2023-03-05T07:01:01;13.25;;;3.55;;
5217;SDS011;26539;51.064;6.346;2023-03-05T07:03:54;16.65;;;4.43;;
5217;SDS011;26539;51.064;6.346;2023-03-05T07:06:43;6.70;;;3.40;;
5217;SDS011;26539;51.064;6.346;2023-03-05T07:09:28;12.15;;;4.13;;
5217;SDS011;26539;51.064;6.346;2023-03-05T07:12:17;6.15;;;3.47;;
5217;SDS011;26539;51.064;6.346;2023-03-05T07:18:24;8.75;;;3.60;;
5217;SDS011;26539;51.064;6.346;2023-03-05T07:21:25;14.05;;;4.60;;
5217;SDS011;26539;51.064;6.346;2023-03-05T07:23:53;9.98;;;4.03;;
5217;SDS011;26539;51.064;6.346;2023-03-05T07:26:19;7.10;;;4.47;;
5217;SDS011;26539;51.064;6.346;2023-03-05T07:28:46;9.80;;;3.90;;
5217;SDS011;26539;51.064;6.346;2023-03-05T07:31:15;7.28;;;4.45;;
5217;SDS011;26539;51.064;6.346;2023-03-05T07:33:43;9.88;;;4.68;;
5217;SDS011;26539;51.064;6.346;2023-03-05T07:36:12;7.47;;;4.80;;
5217;SDS011;26539;51.064;6.346;2023-03-05T07:38:47;14.32;;;5.10;;
5217;SDS011;26539;51.064;6.346;2023-03-05T07:41:38;12.00;;;4.95;;
5217;SDS011;26539;51.064;6.346;2023-03-05T07:48:28;11.02;;;4.82;;
5217;SDS011;26539;51.064;6.346;2023-03-05T07:51:13;12.60;;;4.45;;
5217;SDS011;26539;51.064;6.346;2023-03-05T07:54:23;9.63;;;5.05;;
5217;SDS011;26539;51.064;6.346;2023-03-05T08:14:48;11.40;;;5.13;;
5217;SDS011;26539;51.064;6.346;2023-03-05T08:24:27;14.17;;;5.27;;
5217;SDS011;26539;51.064;6.346;2023-03-05T08:27:30;15.27;;;6.43;;
5217;SDS011;26539;51.064;6.346;2023-03-05T08:30:32;10.80;;;4.80;;
5217;SDS011;26539;51.064;6.346;2023-03-05T08:33:37;11.57;;;5.00;;
5217;SDS011;26539;51.064;6.346;2023-03-05T08:43:14;14.03;;;5.07;;
5217;SDS011;26539;51.064;6.346;2023-03-05T08:46:22;9.80;;;5.40;;
5217;SDS011;26539;51.064;6.346;2023-03-05T08:48:53;15.67;;;6.70;;
5217;SDS011;26539;51.064;6.346;2023-03-05T08:51:21;8.73;;;5.00;;
5217;SDS011;26539;51.064;6.346;2023-03-05T08:53:52;14.32;;;6.70;;
5217;SDS011;26539;51.064;6.346;2023-03-05T09:02:43;17.83;;;8.07;;
5217;SDS011;26539;51.064;6.346;2023-03-05T09:05:12;18.77;;;9.07;;
5217;SDS011;26539;51.064;6.346;2023-03-05T09:07:40;13.52;;;8.38;;
5217;SDS011;26539;51.064;6.346;2023-03-05T09:10:06;17.20;;;8.40;;
5217;SDS011;26539;51.064;6.346;2023-03-05T09:19:30;15.32;;;9.18;;
5217;SDS011;26539;51.064;6.346;2023-03-05T09:28:44;13.20;;;8.23;;
5217;SDS011;26539;51.064;6.346;2023-03-05T09:31:38;13.10;;;7.85;;
5217;SDS011;26539;51.064;6.346;2023-03-05T09:34:20;11.38;;;8.85;;
5217;SDS011;26539;51.064;6.346;2023-03-05T09:37:31;13.27;;;8.82;;
5217;SDS011;26539;51.064;6.346;2023-03-05T09:52:42;10.80;;;7.50;;
5217;SDS011;26539;51.064;6.346;2023-03-05T09:55:13;11.15;;;8.07;;
5217;SDS011;26539;51.064;6.346;2023-03-05T09:58:58;10.60;;;8.48;;
5217;SDS011;26539;51.064;6.346;2023-03-05T10:01:18;12.25;;;9.65;;
5217;SDS011;26539;51.064;6.346;2023-03-05T10:07:24;11.25;;;8.55;;
5217;SDS011;26539;51.064;6.346;2023-03-05T10:10:20;15.27;;;9.73;;
5217;SDS011;26539;51.064;6.346;2023-03-05T10:13:09;18.45;;;10.35;;
5217;SDS011;26539;51.064;6.346;2023-03-05T10:19:09;17.60;;;10.60;;
5217;SDS011;26539;51.064;6.346;2023-03-05T10:47:10;14.60;;;8.88;;
5217;SDS011;26539;51.064;6.346;2023-03-05T10:49:53;14.82;;;10.50;;
5217;SDS011;26539;51.064;6.346;2023-03-05T10:52:31;16.42;;;11.23;;
5217;SDS011;26539;51.064;6.346;2023-03-05T10:54:58;14.23;;;10.73;;
5217;SDS011;26539;51.064;6.346;2023-03-05T10:57:25;15.63;;;9.50;;
5217;SDS011;26539;51.064;6.346;2023-03-05T11:00:00;14.00;;;10.70;;
5217;SDS011;26539;51.064;6.346;2023-03-05T11:02:41;13.97;;;10.90;;
5217;SDS011;26539;51.064;6.346;2023-03-05T11:05:32;12.17;;;9.30;;
5217;SDS011;26539;51.064;6.346;2023-03-05T11:13:40;12.20;;;10.33;;
5217;SDS011;26539;51.064;6.346;2023-03-05T11:16:27;17.57;;;10.70;;
5217;SDS011;26539;51.064;6.346;2023-03-05T11:19:26;16.27;;;11.00;;
5217;SDS011;26539;51.064;6.346;2023-03-05T11:22:06;14.30;;;10.20;;
5217;SDS011;26539;51.064;6.346;2023-03-05T11:24:38;15.23;;;10.90;;
5217;SDS011;26539;51.064;6.346;2023-03-05T11:27:22;16.30;;;10.80;;
5217;SDS011;26539;51.064;6.346;2023-03-05T11:29:57;18.75;;;10.98;;
5217;SDS011;26539;51.064;6.346;2023-03-05T11:32:24;12.43;;;10.65;;
5217;SDS011;26539;51.064;6.346;2023-03-05T11:34:53;11.97;;;9.27;;
5217;SDS011;26539;51.064;6.346;2023-03-05T11:37:28;15.75;;;11.48;;
5217;SDS011;26539;51.064;6.346;2023-03-05T11:40:04;12.77;;;9.48;;
5217;SDS011;26539;51.064;6.346;2023-03-05T11:42:45;15.17;;;10.83;;
5217;SDS011;26539;51.064;6.346;2023-03-05T11:45:19;19.05;;;10.57;;
5217;SDS011;26539;51.064;6.346;2023-03-05T11:47:47;14.80;;;10.57;;
5217;SDS011;26539;51.064;6.346;2023-03-05T11:50:19;13.35;;;10.50;;
5217;SDS011;26539;51.064;6.346;2023-03-05T11:52:49;14.17;;;9.83;;
5217;SDS011;26539;51.064;6.346;2023-03-05T11:55:16;14.80;;;9.33;;
5217;SDS011;26539;51.064;6.346;2023-03-05T12:00:23;10.70;;;8.40;;
5217;SDS011;26539;51.064;6.346;2023-03-05T12:02:54;11.35;;;7.88;;
5217;SDS011;26539;51.064;6.346;2023-03-05T12:05:22;10.02;;;8.13;;
5217;SDS011;26539;51.064;6.346;2023-03-05T12:07:49;16.80;;;8.48;;
5217;SDS011;26539;51.064;6.346;2023-03-05T12:10:20;8.80;;;7.30;;
5217;SDS011;26539;51.064;6.346;2023-03-05T12:12:59;8.93;;;7.15;;
5217;SDS011;26539;51.064;6.346;2023-03-05T12:15:38;10.10;;;7.93;;
5217;SDS011;26539;51.064;6.346;2023-03-05T12:20:57;9.13;;;5.40;;
5217;SDS011;26539;51.064;6.346;2023-03-05T12:23:25;9.20;;;5.93;;
5217;SDS011;26539;51.064;6.346;2023-03-05T12:25:52;7.95;;;5.50;;
5217;SDS011;26539;51.064;6.346;2023-03-05T12:30:57;7.20;;;5.57;;
5217;SDS011;26539;51.064;6.346;2023-03-05T12:38:51;7.38;;;6.18;;
5217;SDS011;26539;51.064;6.346;2023-03-05T12:46:34;7.97;;;5.88;;
5217;SDS011;26539;51.064;6.346;2023-03-05T12:51:45;6.60;;;4.93;;
5217;SDS011;26539;51.064;6.346;2023-03-05T12:56:46;5.20;;;4.60;;
5217;SDS011;26539;51.064;6.346;2023-03-05T12:59:12;7.80;;;5.53;;
5217;SDS011;26539;51.064;6.346;2023-03-05T13:04:13;5.80;;;4.20;;
5217;SDS011;26539;51.064;6.346;2023-03-05T13:06:43;5.00;;;4.20;;
5217;SDS011;26539;51.064;6.346;2023-03-05T13:11:49;7.50;;;6.23;;
5217;SDS011;26539;51.064;6.346;2023-03-05T13:17:23;10.57;;;6.70;;
5217;SDS011;26539;51.064;6.346;2023-03-05T13:19:56;11.63;;;9.83;;
5217;SDS011;26539;51.064;6.346;2023-03-05T13:22:23;6.17;;;4.60;;
5217;SDS011;26539;51.064;6.346;2023-03-05T13:25:02;11.57;;;4.90;;
5217;SDS011;26539;51.064;6.346;2023-03-05T13:27:38;7.60;;;5.50;;
5217;SDS011;26539;51.064;6.346;2023-03-05T13:30:04;7.80;;;7.00;;
5217;SDS011;26539;51.064;6.346;2023-03-05T13:32:30;8.90;;;5.53;;
5217;SDS011;26539;51.064;6.346;2023-03-05T13:34:58;8.37;;;6.93;;
5217;SDS011;26539;51.064;6.346;2023-03-05T13:37:25;7.90;;;7.10;;
5217;SDS011;26539;51.064;6.346;2023-03-05T13:40:14;12.27;;;9.53;;
5217;SDS011;26539;51.064;6.346;2023-03-05T13:42:45;11.80;;;8.60;;
5217;SDS011;26539;51.064;6.346;2023-03-05T13:45:21;9.73;;;8.00;;
5217;SDS011;26539;51.064;6.346;2023-03-05T13:47:53;9.10;;;7.50;;
5217;SDS011;26539;51.064;6.346;2023-03-05T13:50:25;7.53;;;6.67;;
5217;SDS011;26539;51.064;6.346;2023-03-05T13:52:53;9.67;;;6.60;;
5217;SDS011;26539;51.064;6.346;2023-03-05T13:55:20;9.30;;;8.40;;
5217;SDS011;26539;51.064;6.346;2023-03-05T13:57:46;10.60;;;7.50;;
5217;SDS011;26539;51.064;6.346;2023-03-05T14:03:21;20.70;;;11.43;;
5217;SDS011;26539;51.064;6.346;2023-03-05T14:05:48;11.23;;;8.13;;
5217;SDS011;26539;51.064;6.346;2023-03-05T14:08:17;11.75;;;9.50;;
5217;SDS011;26539;51.064;6.346;2023-03-05T14:11:12;10.45;;;8.77;;
5217;SDS011;26539;51.064;6.346;2023-03-05T14:13:39;10.80;;;9.45;;
5217;SDS011;26539;51.064;6.346;2023-03-05T14:16:06;13.40;;;10.00;;
5217;SDS011;26539;51.064;6.346;2023-03-05T14:18:54;10.25;;;9.15;;
5217;SDS011;26539;51.064;6.346;2023-03-05T14:21:24;14.82;;;10.95;;
5217;SDS011;26539;51.064;6.346;2023-03-05T14:24:10;12.27;;;9.85;;
5217;SDS011;26539;51.064;6.346;2023-03-05T14:26:38;13.30;;;9.90;;
5217;SDS011;26539;51.064;6.346;2023-03-05T14:29:13;11.85;;;9.15;;
5217;SDS011;26539;51.064;6.346;2023-03-05T14:31:48;15.27;;;11.27;;
5217;SDS011;26539;51.064;6.346;2023-03-05T14:34:25;13.18;;;11.00;;
5217;SDS011;26539;51.064;6.346;2023-03-05T14:36:54;17.92;;;14.60;;
5217;SDS011;26539;51.064;6.346;2023-03-05T14:39:26;17.23;;;14.90;;
5217;SDS011;26539;51.064;6.346;2023-03-05T14:42:11;18.38;;;12.63;;
5217;SDS011;26539;51.064;6.346;2023-03-05T14:45:03;16.83;;;13.85;;
5217;SDS011;26539;51.064;6.346;2023-03-05T14:47:35;12.55;;;11.00;;
5217;SDS011;26539;51.064;6.346;2023-03-05T14:50:01;14.10;;;10.23;;
5217;SDS011;26539;51.064;6.346;2023-03-05T14:52:26;11.53;;;9.50;;
5217;SDS011;26539;51.064;6.346;2023-03-05T14:54:52;11.63;;;9.23;;
5217;SDS011;26539;51.064;6.346;2023-03-05T14:57:20;12.45;;;9.90;;
5217;SDS011;26539;51.064;6.346;2023-03-05T14:59:48;14.45;;;10.95;;
5217;SDS011;26539;51.064;6.346;2023-03-05T15:02:14;17.53;;;14.50;;
5217;SDS011;26539;51.064;6.346;2023-03-05T15:04:44;15.77;;;14.02;;
5217;SDS011;26539;51.064;6.346;2023-03-05T15:07:16;19.75;;;17.70;;
5217;SDS011;26539;51.064;6.346;2023-03-05T15:09:45;14.48;;;11.35;;
5217;SDS011;26539;51.064;6.346;2023-03-05T15:12:11;17.67;;;15.83;;
5217;SDS011;26539;51.064;6.346;2023-03-05T15:14:38;12.07;;;10.43;;
5217;SDS011;26539;51.064;6.346;2023-03-05T15:17:06;15.70;;;10.75;;
5217;SDS011;26539;51.064;6.346;2023-03-05T15:19:37;14.43;;;12.93;;
5217;SDS011;26539;51.064;6.346;2023-03-05T15:22:03;17.93;;;13.97;;
5217;SDS011;26539;51.064;6.346;2023-03-05T15:24:28;15.90;;;12.23;;
5217;SDS011;26539;51.064;6.346;2023-03-05T15:26:54;15.17;;;11.30;;
5217;SDS011;26539;51.064;6.346;2023-03-05T15:29:19;13.17;;;9.53;;
5217;SDS011;26539;51.064;6.346;2023-03-05T15:31:45;11.57;;;10.40;;
5217;SDS011;26539;51.064;6.346;2023-03-05T15:34:10;15.63;;;13.03;;
5217;SDS011;26539;51.064;6.346;2023-03-05T15:36:36;14.80;;;12.23;;
5217;SDS011;26539;51.064;6.346;2023-03-05T15:39:04;18.80;;;16.80;;
5217;SDS011;26539;51.064;6.346;2023-03-05T15:41:31;11.27;;;9.30;;
5217;SDS011;26539;51.064;6.346;2023-03-05T15:43:57;12.60;;;9.80;;
5217;SDS011;26539;51.064;6.346;2023-03-05T15:46:23;11.80;;;8.60;;
5217;SDS011;26539;51.064;6.346;2023-03-05T15:48:48;12.43;;;9.43;;
5217;SDS011;26539;51.064;6.346;2023-03-05T15:51:14;11.67;;;9.87;;
5217;SDS011;26539;51.064;6.346;2023-03-05T15:53:41;12.02;;;10.73;;
5217;SDS011;26539;51.064;6.346;2023-03-05T15:56:06;14.43;;;10.87;;
5217;SDS011;26539;51.064;6.346;2023-03-05T15:58:37;9.82;;;7.97;;
5217;SDS011;26539;51.064;6.346;2023-03-05T16:01:03;13.63;;;7.90;;
5217;SDS011;26539;51.064;6.346;2023-03-05T16:03:29;20.03;;;17.80;;
5217;SDS011;26539;51.064;6.346;2023-03-05T16:05:54;12.53;;;8.57;;
5217;SDS011;26539;51.064;6.346;2023-03-05T16:08:20;9.23;;;8.00;;
5217;SDS011;26539;51.064;6.346;2023-03-05T16:10:45;10.80;;;9.70;;
5217;SDS011;26539;51.064;6.346;2023-03-05T16:13:14;12.35;;;10.35;;
5217;SDS011;26539;51.064;6.346;2023-03-05T16:15:41;10.43;;;7.32;;
5217;SDS011;26539;51.064;6.346;2023-03-05T16:18:09;10.13;;;7.28;;
5217;SDS011;26539;51.064;6.346;2023-03-05T16:20:37;9.73;;;6.57;;
5217;SDS011;26539;51.064;6.346;2023-03-05T16:23:03;7.73;;;7.00;;
5217;SDS011;26539;51.064;6.346;2023-03-05T16:25:29;12.27;;;10.75;;
5217;SDS011;26539;51.064;6.346;2023-03-05T16:27:55;19.33;;;16.20;;
5217;SDS011;26539;51.064;6.346;2023-03-05T16:30:20;16.97;;;15.23;;
5217;SDS011;26539;51.064;6.346;2023-03-05T16:32:46;29.33;;;20.73;;
5217;SDS011;26539;51.064;6.346;2023-03-05T16:35:12;7.93;;;7.07;;
5217;SDS011;26539;51.064;6.346;2023-03-05T16:37:38;12.63;;;8.90;;
5217;SDS011;26539;51.064;6.346;2023-03-05T16:40:04;11.13;;;8.25;;
5217;SDS011;26539;51.064;6.346;2023-03-05T16:42:31;10.32;;;9.32;;
5217;SDS011;26539;51.064;6.346;2023-03-05T16:44:56;6.47;;;5.77;;
5217;SDS011;26539;51.064;6.346;2023-03-05T16:47:23;11.02;;;7.07;;
5217;SDS011;26539;51.064;6.346;2023-03-05T16:49:48;8.20;;;6.43;;
5217;SDS011;26539;51.064;6.346;2023-03-05T16:52:14;7.63;;;6.00;;
5217;SDS011;26539;51.064;6.346;2023-03-05T16:54:39;7.10;;;6.40;;
5217;SDS011;26539;51.064;6.346;2023-03-05T16:57:06;7.73;;;5.57;;
5217;SDS011;26539;51.064;6.346;2023-03-05T16:59:35;8.05;;;5.30;;
5217;SDS011;26539;51.064;6.346;2023-03-05T17:02:01;5.70;;;4.03;;
5217;SDS011;26539;51.064;6.346;2023-03-05T17:04:27;7.63;;;5.28;;
5217;SDS011;26539;51.064;6.346;2023-03-05T17:06:53;6.57;;;5.75;;
5217;SDS011;26539;51.064;6.346;2023-03-05T17:09:19;8.93;;;6.43;;
5217;SDS011;26539;51.064;6.346;2023-03-05T17:11:48;11.77;;;6.30;;
5217;SDS011;26539;51.064;6.346;2023-03-05T17:14:14;6.47;;;4.68;;
5217;SDS011;26539;51.064;6.346;2023-03-05T17:16:40;5.80;;;3.97;;
5217;SDS011;26539;51.064;6.346;2023-03-05T17:19:05;7.83;;;6.57;;
5217;SDS011;26539;51.064;6.346;2023-03-05T17:21:31;5.90;;;5.30;;
5217;SDS011;26539;51.064;6.346;2023-03-05T17:23:56;8.10;;;5.17;;
5217;SDS011;26539;51.064;6.346;2023-03-05T17:26:22;6.10;;;4.40;;
5217;SDS011;26539;51.064;6.346;2023-03-05T17:28:47;12.10;;;7.67;;
5217;SDS011;26539;51.064;6.346;2023-03-05T17:31:13;6.43;;;5.70;;
5217;SDS011;26539;51.064;6.346;2023-03-05T17:33:39;5.73;;;5.07;;
5217;SDS011;26539;51.064;6.346;2023-03-05T17:36:11;6.03;;;5.20;;
5217;SDS011;26539;51.064;6.346;2023-03-05T17:38:38;5.82;;;5.22;;
5217;SDS011;26539;51.064;6.346;2023-03-05T17:41:03;6.83;;;5.70;;
5217;SDS011;26539;51.064;6.346;2023-03-05T17:43:29;6.33;;;5.70;;
5217;SDS011;26539;51.064;6.346;2023-03-05T17:45:54;8.40;;;6.50;;
5217;SDS011;26539;51.064;6.346;2023-03-05T17:48:23;5.90;;;5.30;;
5217;SDS011;26539;51.064;6.346;2023-03-05T17:50:49;8.43;;;5.70;;
5217;SDS011;26539;51.064;6.346;2023-03-05T17:53:15;7.80;;;5.30;;
5217;SDS011;26539;51.064;6.346;2023-03-05T17:55:42;5.75;;;5.15;;
5217;SDS011;26539;51.064;6.346;2023-03-05T17:58:07;8.57;;;5.30;;
5217;SDS011;26539;51.064;6.346;2023-03-05T18:00:34;6.83;;;5.70;;
5217;SDS011;26539;51.064;6.346;2023-03-05T18:03:00;6.32;;;4.97;;
5217;SDS011;26539;51.064;6.346;2023-03-05T18:05:26;5.97;;;4.80;;
5217;SDS011;26539;51.064;6.346;2023-03-05T18:07:52;6.35;;;4.45;;
5217;SDS011;26539;51.064;6.346;2023-03-05T18:10:20;7.88;;;5.00;;
5217;SDS011;26539;51.064;6.346;2023-03-05T18:12:47;9.18;;;5.28;;
5217;SDS011;26539;51.064;6.346;2023-03-05T18:15:14;5.57;;;4.60;;
5217;SDS011;26539;51.064;6.346;2023-03-05T18:17:41;7.32;;;5.15;;
5217;SDS011;26539;51.064;6.346;2023-03-05T18:20:07;7.40;;;5.60;;
5217;SDS011;26539;51.064;6.346;2023-03-05T18:22:34;8.75;;;5.20;;
5217;SDS011;26539;51.064;6.346;2023-03-05T18:25:00;5.57;;;4.80;;
5217;SDS011;26539;51.064;6.346;2023-03-05T18:27:26;8.27;;;6.30;;
5217;SDS011;26539;51.064;6.346;2023-03-05T18:29:51;7.67;;;5.90;;
5217;SDS011;26539;51.064;6.346;2023-03-05T18:32:21;13.32;;;4.95;;
5217;SDS011;26539;51.064;6.346;2023-03-05T18:34:48;6.97;;;6.00;;
5217;SDS011;26539;51.064;6.346;2023-03-05T18:37:14;6.70;;;5.30;;
5217;SDS011;26539;51.064;6.346;2023-03-05T18:39:39;8.17;;;6.00;;
5217;SDS011;26539;51.064;6.346;2023-03-05T18:42:05;8.87;;;7.60;;
5217;SDS011;26539;51.064;6.346;2023-03-05T18:44:30;5.90;;;5.23;;
5217;SDS011;26539;51.064;6.346;2023-03-05T18:46:59;5.93;;;5.33;;
5217;SDS011;26539;51.064;6.346;2023-03-05T18:49:25;7.03;;;4.93;;
5217;SDS011;26539;51.064;6.346;2023-03-05T18:52:01;8.65;;;6.05;;
5217;SDS011;26539;51.064;6.346;2023-03-05T18:54:35;8.82;;;5.30;;
5217;SDS011;26539;51.064;6.346;2023-03-05T18:57:01;6.97;;;5.80;;
5217;SDS011;26539;51.064;6.346;2023-03-05T18:59:27;10.90;;;5.80;;
5217;SDS011;26539;51.064;6.346;2023-03-05T19:01:53;7.65;;;6.03;;
5217;SDS011;26539;51.064;6.346;2023-03-05T19:04:32;7.38;;;5.13;;
5217;SDS011;26539;51.064;6.346;2023-03-05T19:06:58;10.00;;;7.13;;
5217;SDS011;26539;51.064;6.346;2023-03-05T19:09:32;8.03;;;7.23;;
5217;SDS011;26539;51.064;6.346;2023-03-05T19:12:21;11.15;;;6.35;;
5217;SDS011;26539;51.064;6.346;2023-03-05T19:14:51;8.25;;;6.75;;
5217;SDS011;26539;51.064;6.346;2023-03-05T19:17:18;10.27;;;8.35;;
5217;SDS011;26539;51.064;6.346;2023-03-05T19:19:50;12.90;;;9.50;;
5217;SDS011;26539;51.064;6.346;2023-03-05T19:22:17;14.70;;;10.88;;
5217;SDS011;26539;51.064;6.346;2023-03-05T19:24:44;23.50;;;16.63;;
5217;SDS011;26539;51.064;6.346;2023-03-05T19:27:12;12.57;;;8.87;;
5217;SDS011;26539;51.064;6.346;2023-03-05T19:29:39;13.18;;;9.23;;
5217;SDS011;26539;51.064;6.346;2023-03-05T19:32:07;8.07;;;6.80;;
5217;SDS011;26539;51.064;6.346;2023-03-05T19:34:35;10.65;;;7.15;;
5217;SDS011;26539;51.064;6.346;2023-03-05T19:37:00;11.90;;;9.20;;
5217;SDS011;26539;51.064;6.346;2023-03-05T19:39:26;12.32;;;6.95;;
5217;SDS011;26539;51.064;6.346;2023-03-05T19:41:54;11.90;;;8.90;;
5217;SDS011;26539;51.064;6.346;2023-03-05T19:44:23;13.65;;;10.20;;
5217;SDS011;26539;51.064;6.346;2023-03-05T19:46:53;17.58;;;10.07;;
5217;SDS011;26539;51.064;6.346;2023-03-05T19:49:21;16.30;;;10.30;;
5217;SDS011;26539;51.064;6.346;2023-03-05T19:51:49;14.20;;;9.30;;
5217;SDS011;26539;51.064;6.346;2023-03-05T19:54:18;14.73;;;10.45;;
5217;SDS011;26539;51.064;6.346;2023-03-05T19:56:48;14.07;;;9.13;;
5217;SDS011;26539;51.064;6.346;2023-03-05T19:59:15;15.35;;;10.35;;
5217;SDS011;26539;51.064;6.346;2023-03-05T20:01:44;14.68;;;11.02;;
5217;SDS011;26539;51.064;6.346;2023-03-05T20:04:11;15.30;;;10.63;;
5217;SDS011;26539;51.064;6.346;2023-03-05T20:06:45;16.00;;;11.65;;
5217;SDS011;26539;51.064;6.346;2023-03-05T20:09:14;17.67;;;12.77;;
5217;SDS011;26539;51.064;6.346;2023-03-05T20:11:42;15.00;;;10.85;;
5217;SDS011;26539;51.064;6.346;2023-03-05T20:14:17;18.02;;;12.50;;
5217;SDS011;26539;51.064;6.346;2023-03-05T20:16:48;16.88;;;11.43;;
5217;SDS011;26539;51.064;6.346;2023-03-05T20:19:16;17.65;;;11.82;;
5217;SDS011;26539;51.064;6.346;2023-03-05T20:21:55;21.25;;;12.88;;
5217;SDS011;26539;51.064;6.346;2023-03-05T20:24:27;14.73;;;10.70;;
5217;SDS011;26539;51.064;6.346;2023-03-05T20:26:55;15.23;;;11.10;;
5217;SDS011;26539;51.064;6.346;2023-03-05T20:29:31;14.60;;;10.90;;